sensor_id;sensor_type;location;lat;lon;timestamp;pressure;altitude;pressure_sealevel;temperature;humidity
3082;BME280;1551;51.046;7.010;2024-03-17T00:00:34;101697.78;;;7.70;nan
3082;BME280;1551;51.046;7.010;2024-03-17T00:03:23;101696.94;;;7.71;nan
3082;BME280;1551;51.046;7.010;2024-03-17T00:06:12;101693.47;;;7.66;nan
3082;BME280;1551;51.046;7.010;2024-03-17T00:09:01;101687.47;;;7.64;nan
3082;BME280;1551;51.046;7.010;2024-03-17T00:11:55;101687.41;;;7.59;nan
3082;BME280;1551;51.046;7.010;2024-03-17T00:14:44;101689.03;;;7.57;nan
3082;BME280;1551;51.046;7.010;2024-03-17T00:17:34;101677.88;;;7.51;nan
3082;BME280;1551;51.046;7.010;2024-03-17T00:20:23;101674.38;;;7.44;nan
3082;BME280;1551;51.046;7.010;2024-03-17T00:23:13;101670.09;;;7.43;nan
3082;BME280;1551;51.046;7.010;2024-03-17T00:26:02;101662.38;;;7.39;nan
3082;BME280;1551;51.046;7.010;2024-03-17T00:28:51;101662.28;;;7.33;nan
3082;BME280;1551;51.046;7.010;2024-03-17T00:31:40;101656.97;;;7.22;nan
3082;BME280;1551;51.046;7.010;2024-03-17T00:34:30;101663.88;;;7.28;nan
3082;BME280;1551;51.046;7.010;2024-03-17T00:37:19;101667.28;;;7.28;nan
3082;BME280;1551;51.046;7.010;2024-03-17T00:40:08;101665.47;;;7.23;nan
3082;BME280;1551;51.046;7.010;2024-03-17T00:43:00;101657.81;;;7.21;nan
3082;BME280;1551;51.046;7.010;2024-03-17T00:45:51;101634.59;;;7.06;nan
3082;BME280;1551;51.046;7.010;2024-03-17T00:48:40;101658.63;;;7.19;nan
3082;BME280;1551;51.046;7.010;2024-03-17T00:51:29;101650.09;;;7.17;nan
3082;BME280;1551;51.046;7.010;2024-03-17T00:54:18;101647.53;;;7.17;nan
3082;BME280;1551;51.046;7.010;2024-03-17T00:57:07;101633.88;;;7.12;nan
3082;BME280;1551;51.046;7.010;2024-03-17T00:59:56;101636.47;;;7.15;nan
3082;BME280;1551;51.046;7.010;2024-03-17T01:02:45;101638.16;;;7.14;nan
3082;BME280;1551;51.046;7.010;2024-03-17T01:05:38;101636.44;;;7.13;nan
3082;BME280;1551;51.046;7.010;2024-03-17T01:08:31;101643.97;;;7.07;nan
3082;BME280;1551;51.046;7.010;2024-03-17T01:11:20;101632.00;;;7.03;nan
3082;BME280;1551;51.046;7.010;2024-03-17T01:14:09;101638.03;;;7.08;nan
3082;BME280;1551;51.046;7.010;2024-03-17T01:16:58;101633.78;;;7.07;nan
3082;BME280;1551;51.046;7.010;2024-03-17T01:19:47;101632.13;;;7.09;nan
3082;BME280;1551;51.046;7.010;2024-03-17T01:22:36;101632.09;;;7.08;nan
3082;BME280;1551;51.046;7.010;2024-03-17T01:25:25;101632.13;;;7.09;nan
3082;BME280;1551;51.046;7.010;2024-03-17T01:28:15;101623.59;;;7.07;nan
3082;BME280;1551;51.046;7.010;2024-03-17T01:31:07;101628.75;;;7.10;nan
3082;BME280;1551;51.046;7.010;2024-03-17T01:33:56;101627.03;;;7.11;nan
3082;BME280;1551;51.046;7.010;2024-03-17T01:36:44;101627.03;;;7.11;nan
3082;BME280;1551;51.046;7.010;2024-03-17T01:39:33;101621.06;;;7.09;nan
3082;BME280;1551;51.046;7.010;2024-03-17T01:42:23;101609.19;;;7.08;nan
3082;BME280;1551;51.046;7.010;2024-03-17T01:45:31;101611.75;;;7.08;nan
3082;BME280;1551;51.046;7.010;2024-03-17T01:48:20;101610.81;;;7.04;nan
3082;BME280;1551;51.046;7.010;2024-03-17T01:51:10;101607.22;;;6.93;nan
3082;BME280;1551;51.046;7.010;2024-03-17T01:54:00;101610.69;;;6.98;nan
3082;BME280;1551;51.046;7.010;2024-03-17T01:56:49;101612.38;;;6.98;nan
3082;BME280;1551;51.046;7.010;2024-03-17T01:59:38;101605.53;;;6.93;nan
3082;BME280;1551;51.046;7.010;2024-03-17T02:02:27;101596.16;;;6.92;nan
3082;BME280;1551;51.046;7.010;2024-03-17T02:05:16;101601.97;;;6.87;nan
3082;BME280;1551;51.046;7.010;2024-03-17T02:08:06;101596.00;;;6.85;nan
3082;BME280;1551;51.046;7.010;2024-03-17T02:10:55;101597.72;;;6.84;nan
3082;BME280;1551;51.046;7.010;2024-03-17T02:13:45;101599.41;;;6.84;nan
3082;BME280;1551;51.046;7.010;2024-03-17T02:16:33;101589.09;;;6.78;nan
3082;BME280;1551;51.046;7.010;2024-03-17T02:19:22;101596.59;;;6.70;nan
3082;BME280;1551;51.046;7.010;2024-03-17T02:22:14;101599.63;;;6.54;nan
3082;BME280;1551;51.046;7.010;2024-03-17T02:25:06;101601.31;;;6.54;nan
3082;BME280;1551;51.046;7.010;2024-03-17T02:27:57;101600.47;;;6.55;nan
3082;BME280;1551;51.046;7.010;2024-03-17T02:30:46;101599.56;;;6.51;nan
3082;BME280;1551;51.046;7.010;2024-03-17T02:33:35;101598.59;;;6.45;nan
3082;BME280;1551;51.046;7.010;2024-03-17T02:36:25;101599.13;;;6.32;nan
3082;BME280;1551;51.046;7.010;2024-03-17T02:39:14;101595.72;;;6.31;nan
3082;BME280;1551;51.046;7.010;2024-03-17T02:42:22;101599.28;;;6.38;nan
3082;BME280;1551;51.046;7.010;2024-03-17T02:45:11;101590.72;;;6.34;nan
3082;BME280;1551;51.046;7.010;2024-03-17T02:48:01;101597.47;;;6.34;nan
3082;BME280;1551;51.046;7.010;2024-03-17T02:50:49;101595.69;;;6.28;nan
3082;BME280;1551;51.046;7.010;2024-03-17T02:53:38;101594.66;;;6.21;nan
3082;BME280;1551;51.046;7.010;2024-03-17T02:56:28;101593.84;;;6.21;nan
3082;BME280;1551;51.046;7.010;2024-03-17T02:59:17;101596.19;;;6.13;nan
3082;BME280;1551;51.046;7.010;2024-03-17T03:02:06;101596.91;;;6.08;nan
3082;BME280;1551;51.046;7.010;2024-03-17T03:04:54;101591.72;;;6.03;nan
3082;BME280;1551;51.046;7.010;2024-03-17T03:07:43;101590.81;;;6.00;nan
3082;BME280;1551;51.046;7.010;2024-03-17T03:10:32;101583.03;;;5.94;nan
3082;BME280;1551;51.046;7.010;2024-03-17T03:13:24;101596.78;;;6.02;nan
3082;BME280;1551;51.046;7.010;2024-03-17T03:16:13;101594.16;;;5.99;nan
3082;BME280;1551;51.046;7.010;2024-03-17T03:19:03;101584.72;;;5.93;nan
3082;BME280;1551;51.046;7.010;2024-03-17T03:21:52;101585.47;;;5.89;nan
3082;BME280;1551;51.046;7.010;2024-03-17T03:24:41;101584.59;;;5.89;nan
3082;BME280;1551;51.046;7.010;2024-03-17T03:27:30;101582.91;;;5.88;nan
3082;BME280;1551;51.046;7.010;2024-03-17T03:30:19;101583.69;;;5.85;nan
3082;BME280;1551;51.046;7.010;2024-03-17T03:33:10;101582.72;;;5.82;nan
3082;BME280;1551;51.046;7.010;2024-03-17T03:35:59;101579.22;;;5.77;nan
3082;BME280;1551;51.046;7.010;2024-03-17T03:38:48;101546.63;;;5.59;nan
3082;BME280;1551;51.046;7.010;2024-03-17T03:41:38;101577.41;;;5.73;nan
3082;BME280;1551;51.046;7.010;2024-03-17T03:44:26;101585.00;;;5.70;nan
3082;BME280;1551;51.046;7.010;2024-03-17T03:47:15;101583.22;;;5.67;nan
3082;BME280;1551;51.046;7.010;2024-03-17T03:50:07;101582.25;;;5.62;nan
3082;BME280;1551;51.046;7.010;2024-03-17T03:52:57;101589.00;;;5.62;nan
3082;BME280;1551;51.046;7.010;2024-03-17T03:55:46;101582.28;;;5.64;nan
3082;BME280;1551;51.046;7.010;2024-03-17T03:58:37;101585.72;;;5.66;nan
3082;BME280;1551;51.046;7.010;2024-03-17T04:01:26;101592.53;;;5.67;nan
3082;BME280;1551;51.046;7.010;2024-03-17T04:04:15;101586.59;;;5.66;nan
3082;BME280;1551;51.046;7.010;2024-03-17T04:07:04;101585.69;;;5.64;nan
3082;BME280;1551;51.046;7.010;2024-03-17T04:09:54;101591.66;;;5.66;nan
3082;BME280;1551;51.046;7.010;2024-03-17T04:12:43;101582.28;;;5.64;nan
3082;BME280;1551;51.046;7.010;2024-03-17T04:15:32;101579.63;;;5.59;nan
3082;BME280;1551;51.046;7.010;2024-03-17T04:18:21;101577.91;;;5.58;nan
3082;BME280;1551;51.046;7.010;2024-03-17T04:21:10;101567.84;;;5.61;nan
3082;BME280;1551;51.046;7.010;2024-03-17T04:23:59;101559.41;;;5.62;nan
3082;BME280;1551;51.046;7.010;2024-03-17T04:26:48;101561.09;;;5.63;nan
3082;BME280;1551;51.046;7.010;2024-03-17T04:29:37;101561.94;;;5.62;nan
3082;BME280;1551;51.046;7.010;2024-03-17T04:32:26;101556.91;;;5.64;nan
3082;BME280;1551;51.046;7.010;2024-03-17T04:35:15;101551.81;;;5.64;nan
3082;BME280;1551;51.046;7.010;2024-03-17T04:38:05;101554.28;;;5.61;nan
3082;BME280;1551;51.046;7.010;2024-03-17T04:40:54;101553.50;;;5.63;nan
3082;BME280;1551;51.046;7.010;2024-03-17T04:43:53;101554.31;;;5.62;nan
3082;BME280;1551;51.046;7.010;2024-03-17T04:46:42;101560.31;;;5.66;nan
3082;BME280;1551;51.046;7.010;2024-03-17T04:49:41;101551.03;;;5.66;nan
3082;BME280;1551;51.046;7.010;2024-03-17T04:52:31;101551.22;;;5.74;nan
3082;BME280;1551;51.046;7.010;2024-03-17T04:55:20;101552.13;;;5.77;nan
3082;BME280;1551;51.046;7.010;2024-03-17T04:58:09;101545.28;;;5.73;nan
3082;BME280;1551;51.046;7.010;2024-03-17T05:01:09;101534.06;;;5.65;nan
3082;BME280;1551;51.046;7.010;2024-03-17T05:03:58;101536.75;;;5.70;nan
3082;BME280;1551;51.046;7.010;2024-03-17T05:06:50;101530.81;;;5.71;nan
3082;BME280;1551;51.046;7.010;2024-03-17T05:09:39;101538.44;;;5.71;nan
3082;BME280;1551;51.046;7.010;2024-03-17T05:12:28;101534.25;;;5.73;nan
3082;BME280;1551;51.046;7.010;2024-03-17T05:15:17;101535.91;;;5.72;nan
3082;BME280;1551;51.046;7.010;2024-03-17T05:18:06;101532.56;;;5.72;nan
3082;BME280;1551;51.046;7.010;2024-03-17T05:20:59;101533.34;;;5.71;nan
3082;BME280;1551;51.046;7.010;2024-03-17T05:23:49;101528.44;;;5.77;nan
3082;BME280;1551;51.046;7.010;2024-03-17T05:26:38;101521.66;;;5.77;nan
3082;BME280;1551;51.046;7.010;2024-03-17T05:29:27;101527.63;;;5.79;nan
3082;BME280;1551;51.046;7.010;2024-03-17T05:32:16;101538.63;;;5.78;nan
3082;BME280;1551;51.046;7.010;2024-03-17T05:35:05;101533.53;;;5.77;nan
3082;BME280;1551;51.046;7.010;2024-03-17T05:37:55;101538.84;;;5.86;nan
3082;BME280;1551;51.046;7.010;2024-03-17T05:40:44;101537.22;;;5.89;nan
3082;BME280;1551;51.046;7.010;2024-03-17T05:43:34;101547.34;;;5.88;nan
3082;BME280;1551;51.046;7.010;2024-03-17T05:46:27;101541.25;;;5.83;nan
3082;BME280;1551;51.046;7.010;2024-03-17T05:49:16;101543.91;;;5.86;nan
3082;BME280;1551;51.046;7.010;2024-03-17T05:52:05;101538.00;;;5.87;nan
3082;BME280;1551;51.046;7.010;2024-03-17T05:54:55;101539.75;;;5.89;nan
3082;BME280;1551;51.046;7.010;2024-03-17T05:57:44;101542.38;;;5.94;nan
3082;BME280;1551;51.046;7.010;2024-03-17T06:00:34;101539.13;;;5.99;nan
3082;BME280;1551;51.046;7.010;2024-03-17T06:03:24;101538.28;;;5.99;nan
3082;BME280;1551;51.046;7.010;2024-03-17T06:06:13;101543.44;;;6.02;nan
3082;BME280;1551;51.046;7.010;2024-03-17T06:09:02;101540.88;;;6.02;nan
3082;BME280;1551;51.046;7.010;2024-03-17T06:11:53;101538.56;;;6.12;nan
3082;BME280;1551;51.046;7.010;2024-03-17T06:14:42;101532.09;;;6.27;nan
3082;BME280;1551;51.046;7.010;2024-03-17T06:17:31;101532.38;;;6.40;nan
3082;BME280;1551;51.046;7.010;2024-03-17T06:20:21;101536.75;;;6.47;nan
3082;BME280;1551;51.046;7.010;2024-03-17T06:23:11;101533.47;;;6.53;nan
3082;BME280;1551;51.046;7.010;2024-03-17T06:26:01;101524.19;;;6.53;nan
3082;BME280;1551;51.046;7.010;2024-03-17T06:28:54;101521.81;;;6.64;nan
3082;BME280;1551;51.046;7.010;2024-03-17T06:31:45;101521.28;;;6.80;nan
3082;BME280;1551;51.046;7.010;2024-03-17T06:34:34;101516.03;;;7.17;nan
3082;BME280;1551;51.046;7.010;2024-03-17T06:37:23;101515.53;;;7.39;nan
3082;BME280;1551;51.046;7.010;2024-03-17T06:40:15;101512.31;;;7.49;nan
3082;BME280;1551;51.046;7.010;2024-03-17T06:43:04;101510.03;;;7.69;nan
3082;BME280;1551;51.046;7.010;2024-03-17T06:45:57;101512.38;;;8.84;nan
3082;BME280;1551;51.046;7.010;2024-03-17T06:48:46;101512.38;;;9.88;nan
3082;BME280;1551;51.046;7.010;2024-03-17T06:51:35;101509.19;;;10.27;nan
3082;BME280;1551;51.046;7.010;2024-03-17T06:54:24;101518.75;;;10.81;nan
3082;BME280;1551;51.046;7.010;2024-03-17T06:57:13;101506.00;;;11.10;nan
3082;BME280;1551;51.046;7.010;2024-03-17T07:00:02;101513.72;;;11.29;nan
3082;BME280;1551;51.046;7.010;2024-03-17T07:02:54;101503.44;;;11.35;nan
3082;BME280;1551;51.046;7.010;2024-03-17T07:05:50;101490.53;;;10.49;nan
3082;BME280;1551;51.046;7.010;2024-03-17T07:08:40;101486.84;;;9.94;nan
3082;BME280;1551;51.046;7.010;2024-03-17T07:11:28;101496.97;;;9.75;nan
3082;BME280;1551;51.046;7.010;2024-03-17T07:14:17;101496.88;;;9.62;nan
3082;BME280;1551;51.046;7.010;2024-03-17T07:17:06;101485.69;;;9.42;nan
3082;BME280;1551;51.046;7.010;2024-03-17T07:19:55;101494.13;;;9.34;nan
3082;BME280;1551;51.046;7.010;2024-03-17T07:22:44;101492.38;;;9.30;nan
3082;BME280;1551;51.046;7.010;2024-03-17T07:25:33;101494.84;;;9.16;nan
3082;BME280;1551;51.046;7.010;2024-03-17T07:28:23;101500.69;;;9.05;nan
3082;BME280;1551;51.046;7.010;2024-03-17T07:31:12;101498.09;;;9.00;nan
3082;BME280;1551;51.046;7.010;2024-03-17T07:34:01;101504.03;;;9.00;nan
3082;BME280;1551;51.046;7.010;2024-03-17T07:36:51;101501.63;;;9.14;nan
3082;BME280;1551;51.046;7.010;2024-03-17T07:39:41;101498.19;;;9.11;nan
3082;BME280;1551;51.046;7.010;2024-03-17T07:42:32;101498.25;;;9.20;nan
3082;BME280;1551;51.046;7.010;2024-03-17T07:45:21;101490.56;;;9.14;nan
3082;BME280;1551;51.046;7.010;2024-03-17T07:48:10;101498.25;;;9.18;nan
3082;BME280;1551;51.046;7.010;2024-03-17T07:51:04;101500.09;;;9.34;nan
3082;BME280;1551;51.046;7.010;2024-03-17T07:53:53;101509.47;;;9.37;nan
3082;BME280;1551;51.046;7.010;2024-03-17T07:56:42;101507.91;;;9.54;nan
3082;BME280;1551;51.046;7.010;2024-03-17T07:59:31;101508.94;;;9.83;nan
3082;BME280;1551;51.046;7.010;2024-03-17T08:02:20;101519.44;;;10.24;nan
3082;BME280;1551;51.046;7.010;2024-03-17T08:05:10;101519.53;;;10.51;nan
3082;BME280;1551;51.046;7.010;2024-03-17T08:07:58;101521.34;;;10.82;nan
3082;BME280;1551;51.046;7.010;2024-03-17T08:10:47;101512.81;;;11.09;nan
3082;BME280;1551;51.046;7.010;2024-03-17T08:13:39;101523.97;;;11.58;nan
3082;BME280;1551;51.046;7.010;2024-03-17T08:16:28;101519.72;;;11.72;nan
3082;BME280;1551;51.046;7.010;2024-03-17T08:19:18;101528.09;;;12.27;nan
3082;BME280;1551;51.046;7.010;2024-03-17T08:22:07;101528.03;;;12.40;nan
3082;BME280;1551;51.046;7.010;2024-03-17T08:24:56;101518.47;;;12.77;nan
3082;BME280;1551;51.046;7.010;2024-03-17T08:27:45;101519.41;;;12.63;nan
3082;BME280;1551;51.046;7.010;2024-03-17T08:30:35;101517.84;;;12.24;nan
3082;BME280;1551;51.046;7.010;2024-03-17T08:33:24;101505.00;;;12.30;nan
3082;BME280;1551;51.046;7.010;2024-03-17T08:36:16;101506.72;;;12.26;nan
3082;BME280;1551;51.046;7.010;2024-03-17T08:39:06;101515.28;;;12.24;nan
3082;BME280;1551;51.046;7.010;2024-03-17T08:41:58;101526.25;;;12.62;nan
3082;BME280;1551;51.046;7.010;2024-03-17T08:44:47;101508.84;;;13.11;nan
3082;BME280;1551;51.046;7.010;2024-03-17T08:47:36;101497.28;;;13.62;nan
3082;BME280;1551;51.046;7.010;2024-03-17T08:50:24;101492.88;;;13.71;nan
3082;BME280;1551;51.046;7.010;2024-03-17T08:53:13;101493.91;;;13.54;nan
3082;BME280;1551;51.046;7.010;2024-03-17T08:56:03;101492.91;;;13.70;nan
3082;BME280;1551;51.046;7.010;2024-03-17T08:58:52;101485.09;;;13.81;nan
3082;BME280;1551;51.046;7.010;2024-03-17T09:01:41;101487.56;;;13.90;nan
3082;BME280;1551;51.046;7.010;2024-03-17T09:04:30;101477.44;;;13.71;nan
3082;BME280;1551;51.046;7.010;2024-03-17T09:07:20;101475.63;;;13.83;nan
3082;BME280;1551;51.046;7.010;2024-03-17T09:10:09;101470.97;;;14.13;nan
3082;BME280;1551;51.046;7.010;2024-03-17T09:12:58;101480.16;;;14.35;nan
3082;BME280;1551;51.046;7.010;2024-03-17T09:15:52;101468.81;;;14.50;nan
3082;BME280;1551;51.046;7.010;2024-03-17T09:18:41;101478.22;;;14.53;nan
3082;BME280;1551;51.046;7.010;2024-03-17T09:21:30;101471.59;;;14.33;nan
3082;BME280;1551;51.046;7.010;2024-03-17T09:24:19;101475.00;;;14.37;nan
3082;BME280;1551;51.046;7.010;2024-03-17T09:27:08;101475.06;;;14.29;nan
3082;BME280;1551;51.046;7.010;2024-03-17T09:29:57;101475.91;;;14.33;nan
3082;BME280;1551;51.046;7.010;2024-03-17T09:32:48;101480.13;;;14.38;nan
3082;BME280;1551;51.046;7.010;2024-03-17T09:35:37;101488.59;;;14.48;nan
3082;BME280;1551;51.046;7.010;2024-03-17T09:38:27;101492.03;;;14.47;nan
3082;BME280;1551;51.046;7.010;2024-03-17T09:41:20;101483.78;;;14.16;nan
3082;BME280;1551;51.046;7.010;2024-03-17T09:44:11;101486.19;;;14.33;nan
3082;BME280;1551;51.046;7.010;2024-03-17T09:47:06;101480.75;;;14.56;nan
3082;BME280;1551;51.046;7.010;2024-03-17T09:49:56;101479.25;;;14.99;nan
3082;BME280;1551;51.046;7.010;2024-03-17T09:52:45;101484.41;;;14.99;nan
3082;BME280;1551;51.046;7.010;2024-03-17T09:55:34;101482.72;;;14.98;nan
3082;BME280;1551;51.046;7.010;2024-03-17T09:58:23;101488.78;;;14.95;nan
3082;BME280;1551;51.046;7.010;2024-03-17T10:01:12;101499.66;;;15.12;nan
3082;BME280;1551;51.046;7.010;2024-03-17T10:04:01;101487.22;;;14.84;nan
3082;BME280;1551;51.046;7.010;2024-03-17T10:06:52;101480.75;;;14.56;nan
3082;BME280;1551;51.046;7.010;2024-03-17T10:09:45;101480.97;;;14.39;nan
3082;BME280;1551;51.046;7.010;2024-03-17T10:12:34;101477.31;;;14.54;nan
3082;BME280;1551;51.046;7.010;2024-03-17T10:15:23;101478.66;;;14.80;nan
3082;BME280;1551;51.046;7.010;2024-03-17T10:18:20;101485.00;;;15.14;nan
3082;BME280;1551;51.046;7.010;2024-03-17T10:21:25;101487.53;;;15.19;nan
3082;BME280;1551;51.046;7.010;2024-03-17T10:24:20;101501.25;;;15.21;nan
3082;BME280;1551;51.046;7.010;2024-03-17T10:27:10;101501.97;;;15.29;nan
3082;BME280;1551;51.046;7.010;2024-03-17T10:30:00;101495.13;;;15.28;nan
3082;BME280;1551;51.046;7.010;2024-03-17T10:32:53;101493.84;;;15.00;nan
3082;BME280;1551;51.046;7.010;2024-03-17T10:35:43;101486.03;;;15.04;nan
3082;BME280;1551;51.046;7.010;2024-03-17T10:38:32;101496.13;;;15.68;nan
3082;BME280;1551;51.046;7.010;2024-03-17T10:41:25;101481.81;;;15.98;nan
3082;BME280;1551;51.046;7.010;2024-03-17T10:44:14;101476.78;;;16.33;nan
3082;BME280;1551;51.046;7.010;2024-03-17T10:47:03;101476.19;;;16.21;nan
3082;BME280;1551;51.046;7.010;2024-03-17T10:49:58;101473.47;;;16.28;nan
3082;BME280;1551;51.046;7.010;2024-03-17T10:52:55;101473.50;;;16.25;nan
3082;BME280;1551;51.046;7.010;2024-03-17T10:55:47;101477.34;;;16.06;nan
3082;BME280;1551;51.046;7.010;2024-03-17T10:58:43;101467.44;;;16.28;nan
3082;BME280;1551;51.046;7.010;2024-03-17T11:01:38;101479.81;;;16.92;nan
3082;BME280;1551;51.046;7.010;2024-03-17T11:04:27;101478.41;;;17.81;nan
3082;BME280;1551;51.046;7.010;2024-03-17T11:07:17;101480.72;;;18.80;nan
3082;BME280;1551;51.046;7.010;2024-03-17T11:10:09;101468.06;;;19.49;nan
3082;BME280;1551;51.046;7.010;2024-03-17T11:13:01;101469.75;;;19.50;nan
3082;BME280;1551;51.046;7.010;2024-03-17T11:15:52;101478.50;;;20.43;nan
3082;BME280;1551;51.046;7.010;2024-03-17T11:18:42;101468.97;;;21.29;nan
3082;BME280;1551;51.046;7.010;2024-03-17T11:21:31;101474.84;;;20.01;nan
3082;BME280;1551;51.046;7.010;2024-03-17T11:24:27;101472.72;;;20.35;nan
3082;BME280;1551;51.046;7.010;2024-03-17T11:27:41;101468.06;;;20.20;nan
3082;BME280;1551;51.046;7.010;2024-03-17T11:33:46;101469.03;;;21.48;nan
3082;BME280;1551;51.046;7.010;2024-03-17T11:36:37;101467.28;;;21.28;nan
3082;BME280;1551;51.046;7.010;2024-03-17T11:39:51;101459.19;;;21.14;nan
3082;BME280;1551;51.046;7.010;2024-03-17T11:43:02;101468.97;;;21.49;nan
3082;BME280;1551;51.046;7.010;2024-03-17T11:45:54;101463.13;;;21.24;nan
3082;BME280;1551;51.046;7.010;2024-03-17T11:48:44;101462.38;;;21.41;nan
3082;BME280;1551;51.046;7.010;2024-03-17T11:51:34;101456.56;;;21.36;nan
3082;BME280;1551;51.046;7.010;2024-03-17T11:54:26;101451.63;;;21.08;nan
3082;BME280;1551;51.046;7.010;2024-03-17T11:57:23;101447.56;;;21.01;nan
3082;BME280;1551;51.046;7.010;2024-03-17T12:00:19;101447.34;;;21.07;nan
3082;BME280;1551;51.046;7.010;2024-03-17T12:03:10;101440.53;;;19.68;nan
3082;BME280;1551;51.046;7.010;2024-03-17T12:05:59;101428.47;;;20.37;nan
3082;BME280;1551;51.046;7.010;2024-03-17T12:08:50;101420.88;;;21.38;nan
3082;BME280;1551;51.046;7.010;2024-03-17T12:11:39;101413.13;;;20.73;nan
3082;BME280;1551;51.046;7.010;2024-03-17T12:14:28;101418.28;;;20.96;nan
3082;BME280;1551;51.046;7.010;2024-03-17T12:17:22;101419.44;;;21.89;nan
3082;BME280;1551;51.046;7.010;2024-03-17T12:20:18;101421.94;;;22.66;nan
3082;BME280;1551;51.046;7.010;2024-03-17T12:23:12;101418.72;;;22.61;nan
3082;BME280;1551;51.046;7.010;2024-03-17T12:26:03;101413.63;;;21.83;nan
3082;BME280;1551;51.046;7.010;2024-03-17T12:28:52;101402.66;;;21.95;nan
3082;BME280;1551;51.046;7.010;2024-03-17T12:31:42;101406.25;;;21.54;nan
3082;BME280;1551;51.046;7.010;2024-03-17T12:34:31;101400.47;;;20.65;nan
3082;BME280;1551;51.046;7.010;2024-03-17T12:37:27;101397.09;;;20.83;nan
3082;BME280;1551;51.046;7.010;2024-03-17T12:40:22;101392.97;;;20.99;nan
3082;BME280;1551;51.046;7.010;2024-03-17T12:43:12;101384.75;;;21.10;nan
3082;BME280;1551;51.046;7.010;2024-03-17T12:46:01;101385.63;;;20.24;nan
3082;BME280;1551;51.046;7.010;2024-03-17T12:48:58;101375.22;;;20.67;nan
3082;BME280;1551;51.046;7.010;2024-03-17T12:51:47;101382.28;;;20.20;nan
3082;BME280;1551;51.046;7.010;2024-03-17T12:54:38;101371.88;;;20.20;nan
3082;BME280;1551;51.046;7.010;2024-03-17T12:57:27;101359.91;;;19.71;nan
3082;BME280;1551;51.046;7.010;2024-03-17T13:00:35;101365.47;;;19.13;nan
3082;BME280;1551;51.046;7.010;2024-03-17T13:03:30;101353.50;;;18.83;nan
3082;BME280;1551;51.046;7.010;2024-03-17T13:06:23;101343.13;;;18.83;nan
3082;BME280;1551;51.046;7.010;2024-03-17T13:09:13;101351.50;;;18.66;nan
3082;BME280;1551;51.046;7.010;2024-03-17T13:12:10;101339.31;;;18.40;nan
3082;BME280;1551;51.046;7.010;2024-03-17T13:15:00;101335.47;;;18.26;nan
3082;BME280;1551;51.046;7.010;2024-03-17T13:17:50;101324.63;;;18.13;nan
3082;BME280;1551;51.046;7.010;2024-03-17T13:20:39;101316.94;;;18.10;nan
3082;BME280;1551;51.046;7.010;2024-03-17T13:23:27;101315.78;;;17.93;nan
3082;BME280;1551;51.046;7.010;2024-03-17T13:26:19;101307.88;;;17.97;nan
3082;BME280;1551;51.046;7.010;2024-03-17T13:29:09;101303.56;;;17.96;nan
3082;BME280;1551;51.046;7.010;2024-03-17T13:31:58;101299.00;;;17.76;nan
3082;BME280;1551;51.046;7.010;2024-03-17T13:34:47;101289.38;;;17.51;nan
3082;BME280;1551;51.046;7.010;2024-03-17T13:37:36;101289.41;;;17.49;nan
3082;BME280;1551;51.046;7.010;2024-03-17T13:40:26;101286.00;;;17.49;nan
3082;BME280;1551;51.046;7.010;2024-03-17T13:43:15;101292.09;;;17.46;nan
3082;BME280;1551;51.046;7.010;2024-03-17T13:46:04;101286.75;;;17.22;nan
3082;BME280;1551;51.046;7.010;2024-03-17T13:48:53;101288.41;;;16.93;nan
3082;BME280;1551;51.046;7.010;2024-03-17T13:51:46;101293.00;;;16.82;nan
3082;BME280;1551;51.046;7.010;2024-03-17T13:54:36;101281.13;;;16.75;nan
3082;BME280;1551;51.046;7.010;2024-03-17T13:57:25;101288.66;;;16.84;nan
3082;BME280;1551;51.046;7.010;2024-03-17T14:00:14;101283.47;;;16.84;nan
3082;BME280;1551;51.046;7.010;2024-03-17T14:03:08;101286.19;;;16.80;nan
3082;BME280;1551;51.046;7.010;2024-03-17T14:05:57;101280.09;;;16.82;nan
3082;BME280;1551;51.046;7.010;2024-03-17T14:08:46;101280.22;;;16.78;nan
3082;BME280;1551;51.046;7.010;2024-03-17T14:11:36;101271.06;;;16.65;nan
3082;BME280;1551;51.046;7.010;2024-03-17T14:14:25;101272.94;;;16.58;nan
3082;BME280;1551;51.046;7.010;2024-03-17T14:17:13;101270.53;;;16.50;nan
3082;BME280;1551;51.046;7.010;2024-03-17T14:20:02;101271.91;;;16.65;nan
3082;BME280;1551;51.046;7.010;2024-03-17T14:22:52;101269.25;;;16.68;nan
3082;BME280;1551;51.046;7.010;2024-03-17T14:25:46;101266.50;;;16.74;nan
3082;BME280;1551;51.046;7.010;2024-03-17T14:28:35;101273.00;;;16.57;nan
3082;BME280;1551;51.046;7.010;2024-03-17T14:31:25;101261.06;;;16.53;nan
3082;BME280;1551;51.046;7.010;2024-03-17T14:34:15;101266.38;;;16.79;nan
3082;BME280;1551;51.046;7.010;2024-03-17T14:37:04;101262.53;;;16.95;nan
3082;BME280;1551;51.046;7.010;2024-03-17T14:39:53;101256.69;;;17.17;nan
3082;BME280;1551;51.046;7.010;2024-03-17T14:42:42;101244.31;;;17.29;nan
3082;BME280;1551;51.046;7.010;2024-03-17T14:45:31;101242.44;;;17.34;nan
3082;BME280;1551;51.046;7.010;2024-03-17T14:48:20;101233.06;;;17.59;nan
3082;BME280;1551;51.046;7.010;2024-03-17T14:51:10;101230.88;;;17.74;nan
3082;BME280;1551;51.046;7.010;2024-03-17T14:54:00;101228.00;;;17.83;nan
3082;BME280;1551;51.046;7.010;2024-03-17T14:56:49;101227.25;;;17.52;nan
3082;BME280;1551;51.046;7.010;2024-03-17T14:59:38;101227.75;;;17.63;nan
3082;BME280;1551;51.046;7.010;2024-03-17T15:02:28;101225.03;;;17.68;nan
3082;BME280;1551;51.046;7.010;2024-03-17T15:05:18;101218.88;;;17.72;nan
3082;BME280;1551;51.046;7.010;2024-03-17T15:08:15;101208.66;;;17.95;nan
3082;BME280;1551;51.046;7.010;2024-03-17T15:11:04;101209.28;;;18.28;nan
3082;BME280;1551;51.046;7.010;2024-03-17T15:13:53;101204.00;;;18.31;nan
3082;BME280;1551;51.046;7.010;2024-03-17T15:16:42;101199.56;;;18.34;nan
3082;BME280;1551;51.046;7.010;2024-03-17T15:19:31;101191.56;;;18.40;nan
3082;BME280;1551;51.046;7.010;2024-03-17T15:22:21;101194.03;;;18.45;nan
3082;BME280;1551;51.046;7.010;2024-03-17T15:25:11;101192.88;;;18.27;nan
3082;BME280;1551;51.046;7.010;2024-03-17T15:28:01;101191.09;;;18.03;nan
3082;BME280;1551;51.046;7.010;2024-03-17T15:30:51;101184.19;;;18.04;nan
3082;BME280;1551;51.046;7.010;2024-03-17T15:33:40;101187.16;;;18.18;nan
3082;BME280;1551;51.046;7.010;2024-03-17T15:36:29;101176.72;;;18.19;nan
3082;BME280;1551;51.046;7.010;2024-03-17T15:39:18;101176.06;;;17.88;nan
3082;BME280;1551;51.046;7.010;2024-03-17T15:42:07;101168.75;;;17.74;nan
3082;BME280;1551;51.046;7.010;2024-03-17T15:45:01;101163.97;;;17.61;nan
3082;BME280;1551;51.046;7.010;2024-03-17T15:47:51;101160.50;;;17.62;nan
3082;BME280;1551;51.046;7.010;2024-03-17T15:50:39;101147.63;;;17.60;nan